createdAt,value
2022-08-02T00:01:31.697Z,14.20
2022-08-02T00:04:02.825Z,14.20
2022-08-02T00:06:35.745Z,14.10
2022-08-02T00:09:08.139Z,14.10
2022-08-02T00:11:40.407Z,14.00
2022-08-02T00:14:15.239Z,14.00
2022-08-02T00:16:44.688Z,14.00
2022-08-02T00:19:14.254Z,13.90
2022-08-02T00:21:46.900Z,13.80
2022-08-02T00:24:29.763Z,13.80
2022-08-02T00:27:00.839Z,13.70
2022-08-02T00:29:34.832Z,13.70
2022-08-02T00:32:12.832Z,13.60
2022-08-02T00:34:42.765Z,13.60
2022-08-02T00:37:11.805Z,13.70
2022-08-02T00:39:40.775Z,13.70
2022-08-02T00:42:11.464Z,13.90
2022-08-02T00:44:42.488Z,13.90
2022-08-02T00:47:11.611Z,14.00
2022-08-02T00:49:52.492Z,14.10
2022-08-02T00:52:25.424Z,14.10
2022-08-02T00:54:57.647Z,14.00
2022-08-02T00:57:26.769Z,13.90
2022-08-02T00:59:57.297Z,13.60
2022-08-02T01:02:26.737Z,13.40
2022-08-02T01:04:55.801Z,13.40
2022-08-02T01:07:24.653Z,13.30
2022-08-02T01:09:53.780Z,13.20
2022-08-02T01:12:23.207Z,13.00
2022-08-02T01:14:57.351Z,12.70
2022-08-02T01:17:40.684Z,12.50
2022-08-02T01:20:29.464Z,12.30
2022-08-02T01:23:27.155Z,12.10
2022-08-02T01:26:21.219Z,12.10
2022-08-02T01:29:01.579Z,12.00
2022-08-02T01:31:37.552Z,12.10
2022-08-02T01:34:15.015Z,12.10
2022-08-02T01:36:53.558Z,12.00
2022-08-02T01:39:32.315Z,11.90
2022-08-02T01:42:03.759Z,11.90
2022-08-02T01:44:45.804Z,11.80
2022-08-02T01:47:22.977Z,11.70
2022-08-02T01:49:59.090Z,11.70
2022-08-02T01:52:33.569Z,11.60
2022-08-02T01:55:18.986Z,11.60
2022-08-02T01:57:54.204Z,11.60
2022-08-02T02:00:34.274Z,11.50
2022-08-02T02:03:08.151Z,11.30
2022-08-02T02:05:41.145Z,11.20
2022-08-02T02:08:13.056Z,11.00
2022-08-02T02:10:44.648Z,10.90
2022-08-02T02:13:18.726Z,10.80
2022-08-02T02:15:52.441Z,10.60
2022-08-02T02:18:28.649Z,10.60
2022-08-02T02:21:00.242Z,10.50
2022-08-02T02:23:33.397Z,10.40
2022-08-02T02:26:07.596Z,10.30
2022-08-02T02:28:48.616Z,10.30
2022-08-02T02:31:22.835Z,10.30
2022-08-02T02:34:00.164Z,10.20
2022-08-02T02:36:33.269Z,10.20
2022-08-02T02:39:13.051Z,10.20
2022-08-02T02:41:45.474Z,10.20
2022-08-02T02:44:21.577Z,10.10
2022-08-02T02:46:56.116Z,10.10
2022-08-02T02:49:27.972Z,10.00
2022-08-02T02:52:00.173Z,10.00
2022-08-02T02:54:35.457Z,9.90
2022-08-02T02:57:08.185Z,9.80
2022-08-02T02:59:49.364Z,9.80
2022-08-02T03:02:21.922Z,9.90
2022-08-02T03:04:55.840Z,9.80
2022-08-02T03:07:29.953Z,9.80
2022-08-02T03:10:00.621Z,9.70
2022-08-02T03:12:32.342Z,9.80
2022-08-02T03:15:07.884Z,9.90
2022-08-02T03:17:44.134Z,10.00
2022-08-02T03:20:17.298Z,10.00
2022-08-02T03:22:48.268Z,10.10
2022-08-02T03:25:19.804Z,10.00
2022-08-02T03:27:50.708Z,10.00
2022-08-02T03:30:25.684Z,9.90
2022-08-02T03:32:57.566Z,9.80
2022-08-02T03:35:27.533Z,9.80
2022-08-02T03:38:03.378Z,9.70
2022-08-02T03:40:33.718Z,9.70
2022-08-02T03:43:06.029Z,9.80
2022-08-02T03:45:36.357Z,9.80
2022-08-02T03:48:34.340Z,9.90
2022-08-02T03:51:01.956Z,10.10
2022-08-02T03:53:34.511Z,10.20
2022-08-02T03:56:04.085Z,10.20
2022-08-02T03:58:34.608Z,10.20
2022-08-02T04:01:08.349Z,10.30
2022-08-02T04:03:41.649Z,10.50
2022-08-02T04:06:13.463Z,10.60
2022-08-02T04:08:44.958Z,10.70
2022-08-02T04:11:32.272Z,10.90
2022-08-02T04:14:05.056Z,11.00
2022-08-02T04:16:44.008Z,11.10
2022-08-02T04:19:27.773Z,11.20
2022-08-02T04:22:00.040Z,11.40
2022-08-02T04:24:50.177Z,11.50
2022-08-02T04:28:15.633Z,11.60
2022-08-02T04:30:19.764Z,11.80
2022-08-02T04:32:49.261Z,11.90
2022-08-02T04:35:22.664Z,12.00
2022-08-02T04:38:09.860Z,12.20
2022-08-02T04:40:41.714Z,12.40
2022-08-02T04:43:11.127Z,12.50
2022-08-02T04:45:40.652Z,12.70
2022-08-02T04:48:10.244Z,12.90
2022-08-02T04:50:40.838Z,13.00
2022-08-02T04:53:09.764Z,13.20
2022-08-02T04:55:38.649Z,13.40
2022-08-02T04:58:37.031Z,13.60
2022-08-02T05:00:57.368Z,13.80
2022-08-02T05:03:26.537Z,14.10
2022-08-02T05:05:57.067Z,14.20
2022-08-02T05:08:26.383Z,14.30
2022-08-02T05:10:56.228Z,14.50
2022-08-02T05:13:26.036Z,14.60
2022-08-02T05:15:55.150Z,14.70
2022-08-02T05:18:24.377Z,14.80
2022-08-02T05:20:58.044Z,14.90
2022-08-02T05:23:28.987Z,14.90
2022-08-02T05:25:58.067Z,15.00
2022-08-02T05:28:27.725Z,15.10
2022-08-02T05:30:56.753Z,15.30
2022-08-02T05:33:25.857Z,15.50
2022-08-02T05:35:54.987Z,15.70
2022-08-02T05:38:26.142Z,16.00
2022-08-02T05:40:56.772Z,16.20
2022-08-02T05:43:25.594Z,16.40
2022-08-02T05:45:59.830Z,16.80
2022-08-02T05:48:32.037Z,17.20
2022-08-02T05:51:07.221Z,18.00
2022-08-02T05:53:49.292Z,19.30
2022-08-02T05:56:36.488Z,20.40
2022-08-02T05:59:13.465Z,21.30
2022-08-02T06:01:45.350Z,21.80
2022-08-02T06:04:25.158Z,22.30
2022-08-02T06:07:05.478Z,23.10
2022-08-02T06:09:41.883Z,24.20
2022-08-02T06:12:20.705Z,24.90
2022-08-02T06:14:54.526Z,25.30
2022-08-02T06:17:25.013Z,25.50
2022-08-02T06:19:58.938Z,25.80
2022-08-02T06:22:35.545Z,25.10
2022-08-02T06:25:48.460Z,24.70
2022-08-02T06:28:10.612Z,24.60
2022-08-02T06:30:46.254Z,24.30
2022-08-02T06:33:15.789Z,23.70
2022-08-02T06:36:04.267Z,24.00
2022-08-02T06:38:41.924Z,24.10
2022-08-02T06:41:20.987Z,24.00
2022-08-02T06:43:57.365Z,24.40
2022-08-02T06:46:54.390Z,24.80
2022-08-02T06:49:16.152Z,25.40
2022-08-02T06:51:45.209Z,26.30
2022-08-02T06:54:14.275Z,26.80
2022-08-02T06:56:43.431Z,27.20
2022-08-02T06:59:14.611Z,27.60
2022-08-02T07:01:44.712Z,27.90
2022-08-02T07:04:19.935Z,28.10
2022-08-02T07:06:53.181Z,27.30
2022-08-02T07:09:22.900Z,26.20
2022-08-02T07:11:52.673Z,26.40
2022-08-02T07:14:25.369Z,26.30
2022-08-02T07:16:57.548Z,25.90
2022-08-02T07:19:37.605Z,25.10
2022-08-02T07:22:10.322Z,24.40
2022-08-02T07:24:42.492Z,25.80
2022-08-02T07:27:12.991Z,26.00
2022-08-02T07:29:46.899Z,27.20
2022-08-02T07:32:17.226Z,26.90
2022-08-02T07:34:51.147Z,25.80
2022-08-02T07:37:35.657Z,26.30
2022-08-02T07:40:20.265Z,26.10
2022-08-02T07:42:56.512Z,25.80
2022-08-02T07:45:35.625Z,24.90
2022-08-02T07:48:08.795Z,25.00
2022-08-02T07:50:38.084Z,25.40
2022-08-02T07:53:10.144Z,26.00
2022-08-02T07:55:40.307Z,26.50
2022-08-02T07:58:12.791Z,26.50
2022-08-02T08:00:45.363Z,26.70
2022-08-02T08:03:14.625Z,27.10
2022-08-02T08:05:43.481Z,27.80
2022-08-02T08:08:17.339Z,28.00
2022-08-02T08:10:47.803Z,28.10
2022-08-02T08:13:16.908Z,27.90
2022-08-02T08:15:52.457Z,27.80
2022-08-02T08:18:23.809Z,27.40
2022-08-02T08:20:53.086Z,27.40
2022-08-02T08:23:22.185Z,28.20
2022-08-02T08:25:50.905Z,27.60
2022-08-02T08:28:20.301Z,27.30
2022-08-02T08:30:50.637Z,28.30
2022-08-02T08:33:19.669Z,28.30
2022-08-02T08:35:49.195Z,28.50
2022-08-02T08:38:18.576Z,28.60
2022-08-02T08:40:50.877Z,28.60
2022-08-02T08:43:20.366Z,28.70
2022-08-02T08:45:55.868Z,28.80
2022-08-02T08:48:31.004Z,28.60
2022-08-02T08:51:13.046Z,29.40
2022-08-02T08:53:47.101Z,30.30
2022-08-02T08:56:17.973Z,29.90
2022-08-02T08:58:49.068Z,29.10
2022-08-02T09:01:23.036Z,27.90
2022-08-02T09:03:52.350Z,26.50
2022-08-02T09:06:22.042Z,26.40
2022-08-02T09:08:51.785Z,27.00
2022-08-02T09:11:24.931Z,27.60
2022-08-02T09:13:56.832Z,28.10
2022-08-02T09:16:37.211Z,28.50
2022-08-02T09:19:20.477Z,28.70
2022-08-02T09:21:52.515Z,28.40
2022-08-02T09:24:24.989Z,29.00
2022-08-02T09:26:54.549Z,29.20
2022-08-02T09:29:26.112Z,29.30
2022-08-02T09:32:05.139Z,29.30
2022-08-02T09:34:50.783Z,29.30
2022-08-02T09:37:28.392Z,30.10
2022-08-02T09:40:00.835Z,30.80
2022-08-02T09:42:31.244Z,30.70
2022-08-02T09:45:03.285Z,30.40
2022-08-02T09:47:37.306Z,30.70
2022-08-02T09:50:11.040Z,30.90
2022-08-02T09:52:45.634Z,30.60
2022-08-02T09:55:14.923Z,29.80
2022-08-02T09:57:51.096Z,29.60
2022-08-02T10:00:31.898Z,29.20
2022-08-02T10:03:21.608Z,28.90
2022-08-02T10:05:55.941Z,28.50
2022-08-02T10:08:33.241Z,28.10
2022-08-02T10:11:04.192Z,28.60
2022-08-02T10:13:36.110Z,29.10
2022-08-02T10:16:07.635Z,29.30
2022-08-02T10:18:40.658Z,29.30
2022-08-02T10:21:27.081Z,28.80
2022-08-02T10:23:58.308Z,28.40
2022-08-02T10:26:28.535Z,28.40
2022-08-02T10:28:57.554Z,28.70
2022-08-02T10:31:37.923Z,28.30
2022-08-02T10:34:14.263Z,28.00
2022-08-02T10:36:44.929Z,27.90
2022-08-02T10:39:15.068Z,27.90
2022-08-02T10:41:47.629Z,28.30
2022-08-02T10:44:26.520Z,28.20
2022-08-02T10:47:28.304Z,27.60
2022-08-02T10:50:01.093Z,27.80
2022-08-02T10:52:32.287Z,27.50
2022-08-02T10:55:04.308Z,27.50
2022-08-02T10:57:48.725Z,27.50
2022-08-02T11:00:30.047Z,27.20
2022-08-02T11:02:59.361Z,28.00
2022-08-02T11:05:43.411Z,28.00
2022-08-02T11:08:22.265Z,27.70
2022-08-02T11:10:51.222Z,27.80
2022-08-02T11:13:21.279Z,27.40
2022-08-02T11:15:59.718Z,27.10
2022-08-02T11:19:06.543Z,27.00
2022-08-02T11:22:02.425Z,27.30
2022-08-02T11:24:33.726Z,27.80
2022-08-02T11:27:04.978Z,27.70
2022-08-02T11:29:39.629Z,27.50
2022-08-02T11:32:10.582Z,27.30
2022-08-02T11:34:42.134Z,27.40
2022-08-02T11:37:13.097Z,27.60
2022-08-02T11:39:42.500Z,27.30
2022-08-02T11:42:11.992Z,27.00
2022-08-02T11:44:46.795Z,26.60
2022-08-02T11:47:16.355Z,26.50
2022-08-02T11:49:45.689Z,26.80
2022-08-02T11:52:16.723Z,27.40
2022-08-02T11:54:46.091Z,27.90
2022-08-02T11:57:20.810Z,28.60
2022-08-02T11:59:56.767Z,28.40
2022-08-02T12:02:30.378Z,28.00
2022-08-02T12:05:02.819Z,27.70
2022-08-02T12:07:45.943Z,27.70
2022-08-02T12:10:19.039Z,27.70
2022-08-02T12:12:54.248Z,27.60
2022-08-02T12:15:35.967Z,27.80
2022-08-02T12:18:27.452Z,28.10
2022-08-02T12:20:57.245Z,28.20
2022-08-02T12:23:28.283Z,28.10
2022-08-02T12:26:07.074Z,28.00
2022-08-02T12:28:39.327Z,27.90
2022-08-02T12:31:10.856Z,27.80
2022-08-02T12:33:50.585Z,27.90
2022-08-02T12:36:21.957Z,28.60
2022-08-02T12:38:58.321Z,29.10
2022-08-02T12:41:32.584Z,28.60
2022-08-02T12:44:03.315Z,28.20
2022-08-02T12:46:35.699Z,28.30
2022-08-02T12:49:21.133Z,28.40
2022-08-02T12:51:57.555Z,28.80
2022-08-02T12:54:36.168Z,28.90
2022-08-02T12:57:13.374Z,28.30
2022-08-02T12:59:51.559Z,27.20
2022-08-02T13:02:23.765Z,26.90
2022-08-02T13:04:52.702Z,27.20
2022-08-02T13:07:21.712Z,27.50
2022-08-02T13:10:02.644Z,28.00
2022-08-02T13:12:34.752Z,27.80
2022-08-02T13:15:04.368Z,28.20
2022-08-02T13:17:43.241Z,28.80
2022-08-02T13:20:14.692Z,29.80
2022-08-02T13:22:51.386Z,29.40
2022-08-02T13:25:24.144Z,28.70
2022-08-02T13:27:54.391Z,28.20
2022-08-02T13:30:23.391Z,27.60
2022-08-02T13:32:52.254Z,27.40
2022-08-02T13:35:21.965Z,27.70
2022-08-02T13:37:51.973Z,28.10
2022-08-02T13:40:23.238Z,28.00
2022-08-02T13:42:52.251Z,28.30
2022-08-02T13:45:21.945Z,28.10
2022-08-02T13:48:04.349Z,28.30
2022-08-02T13:50:34.893Z,28.50
2022-08-02T13:53:32.383Z,28.60
2022-08-02T13:56:03.233Z,29.30
2022-08-02T13:58:36.504Z,29.70
2022-08-02T14:01:06.116Z,29.00
2022-08-02T14:04:08.257Z,28.20
2022-08-02T14:06:24.966Z,28.10
2022-08-02T14:08:56.648Z,28.60
2022-08-02T14:13:12.109Z,29.00
2022-08-02T14:15:47.970Z,29.30
2022-08-02T14:18:18.852Z,28.60
2022-08-02T14:20:49.020Z,28.80
2022-08-02T14:23:18.685Z,28.70
2022-08-02T14:26:14.166Z,28.50
2022-08-02T14:28:56.005Z,28.70
2022-08-02T14:31:26.742Z,28.80
2022-08-02T14:33:59.184Z,28.90
2022-08-02T14:36:29.436Z,28.50
2022-08-02T14:38:59.316Z,28.20
2022-08-02T14:41:28.454Z,28.50
2022-08-02T14:44:07.327Z,28.60
2022-08-02T14:46:41.845Z,28.50
2022-08-02T14:49:14.387Z,28.40
2022-08-02T14:51:54.396Z,28.90
2022-08-02T14:54:28.325Z,28.70
2022-08-02T14:57:01.208Z,28.50
2022-08-02T14:59:31.677Z,28.10
2022-08-02T15:02:02.526Z,27.60
2022-08-02T15:04:34.129Z,27.30
2022-08-02T15:07:10.183Z,27.20
2022-08-02T15:09:39.741Z,27.00
2022-08-02T15:12:11.429Z,26.90
2022-08-02T15:14:41.587Z,27.10
2022-08-02T15:17:12.470Z,27.20
2022-08-02T15:19:58.016Z,27.50
2022-08-02T15:22:30.122Z,27.70
2022-08-02T15:25:00.016Z,27.70
2022-08-02T15:27:31.592Z,27.30
2022-08-02T15:30:01.678Z,26.70
2022-08-02T15:32:34.922Z,26.30
2022-08-02T15:35:08.694Z,25.90
2022-08-02T15:37:41.372Z,25.80
2022-08-02T15:40:12.960Z,25.80
2022-08-02T15:42:43.792Z,25.70
2022-08-02T15:45:16.244Z,25.60
2022-08-02T15:47:48.290Z,25.50
2022-08-02T15:50:19.795Z,25.70
2022-08-02T15:52:48.857Z,25.90
2022-08-02T15:55:20.448Z,26.10
2022-08-02T15:57:49.715Z,25.90
2022-08-02T16:00:19.335Z,25.50
2022-08-02T16:02:50.222Z,25.30
2022-08-02T16:05:20.983Z,25.20
2022-08-02T16:07:50.173Z,25.20
2022-08-02T16:10:20.667Z,25.20
2022-08-02T16:12:50.585Z,25.30
2022-08-02T16:15:19.743Z,25.30
2022-08-02T16:17:53.769Z,25.10
2022-08-02T16:20:24.254Z,25.00
2022-08-02T16:22:53.140Z,25.00
2022-08-02T16:25:22.150Z,25.00
2022-08-02T16:28:07.230Z,25.00
2022-08-02T16:30:37.678Z,25.00
2022-08-02T16:33:08.883Z,25.00
2022-08-02T16:35:38.238Z,25.10
2022-08-02T16:38:09.955Z,25.10
2022-08-02T16:40:38.667Z,25.00
2022-08-02T16:43:09.261Z,25.00
2022-08-02T16:45:38.367Z,25.00
2022-08-02T16:48:10.876Z,25.00
2022-08-02T16:50:40.483Z,25.10
2022-08-02T16:53:37.356Z,25.20
2022-08-02T16:56:06.520Z,25.40
2022-08-02T16:58:35.675Z,25.70
2022-08-02T17:01:06.562Z,26.00
2022-08-02T17:03:56.009Z,26.30
2022-08-02T17:06:27.480Z,26.60
2022-08-02T17:08:57.124Z,26.70
2022-08-02T17:11:26.015Z,26.80
2022-08-02T17:14:01.048Z,26.80
2022-08-02T17:16:34.179Z,26.70
2022-08-02T17:19:07.356Z,26.50
2022-08-02T17:21:36.188Z,26.20
2022-08-02T17:24:08.264Z,26.10
2022-08-02T17:26:39.162Z,26.00
2022-08-02T17:29:17.973Z,25.90
2022-08-02T17:32:05.471Z,25.80
2022-08-02T17:34:40.247Z,25.60
2022-08-02T17:37:18.415Z,25.50
2022-08-02T17:39:51.917Z,25.30
2022-08-02T17:42:23.366Z,25.10
2022-08-02T17:44:54.671Z,24.90
2022-08-02T17:47:30.948Z,24.70
2022-08-02T17:50:01.473Z,24.30
2022-08-02T17:52:51.433Z,23.90
2022-08-02T17:55:22.586Z,23.60
2022-08-02T17:57:57.214Z,23.40
2022-08-02T18:00:34.535Z,23.20
2022-08-02T18:03:05.970Z,23.00
2022-08-02T18:05:53.741Z,22.90
2022-08-02T18:08:25.934Z,22.80
2022-08-02T18:10:57.357Z,22.70
2022-08-02T18:13:32.913Z,22.60
2022-08-02T18:16:05.343Z,22.50
2022-08-02T18:18:50.320Z,22.40
2022-08-02T18:21:22.824Z,22.40
2022-08-02T18:23:58.535Z,22.40
2022-08-02T18:26:29.020Z,22.30
2022-08-02T18:28:59.488Z,22.20
2022-08-02T18:31:28.762Z,22.10
2022-08-02T18:34:09.464Z,22.10
2022-08-02T18:36:47.047Z,22.10
2022-08-02T18:39:17.828Z,22.00
2022-08-02T18:41:48.060Z,21.90
2022-08-02T18:44:19.280Z,21.80
2022-08-02T18:46:50.497Z,21.80
2022-08-02T18:49:20.698Z,21.70
2022-08-02T18:51:51.918Z,21.60
2022-08-02T18:54:26.561Z,21.50
2022-08-02T18:57:00.976Z,21.50
2022-08-02T18:59:37.448Z,21.50
2022-08-02T19:02:06.804Z,21.40
2022-08-02T19:04:35.709Z,21.30
2022-08-02T19:07:08.186Z,21.10
2022-08-02T19:09:40.141Z,21.10
2022-08-02T19:12:12.114Z,21.10
2022-08-02T19:14:47.659Z,21.00
2022-08-02T19:17:55.147Z,20.90
2022-08-02T19:20:09.498Z,20.80
2022-08-02T19:22:41.313Z,20.70
2022-08-02T19:25:16.024Z,20.60
2022-08-02T19:27:47.291Z,20.60
2022-08-02T19:30:16.991Z,20.60
2022-08-02T19:32:58.706Z,20.60
2022-08-02T19:35:34.583Z,20.60
2022-08-02T19:38:13.001Z,20.50
2022-08-02T19:40:43.155Z,20.50
2022-08-02T19:44:21.980Z,20.60
2022-08-02T19:46:03.189Z,20.50
2022-08-02T19:48:41.112Z,20.30
2022-08-02T19:51:10.678Z,20.30
2022-08-02T19:53:47.539Z,20.30
2022-08-02T19:56:25.919Z,20.30
2022-08-02T19:58:58.055Z,20.20
2022-08-02T20:04:23.540Z,20.20
2022-08-02T20:06:58.141Z,20.50
2022-08-02T20:09:33.214Z,20.60
2022-08-02T20:12:16.659Z,20.60
2022-08-02T20:14:50.975Z,20.60
2022-08-02T20:17:21.347Z,20.60
2022-08-02T20:19:50.934Z,20.60
2022-08-02T20:22:21.289Z,20.50
2022-08-02T20:24:54.623Z,20.50
2022-08-02T20:27:30.257Z,20.70
2022-08-02T20:30:01.519Z,20.50
2022-08-02T20:32:30.936Z,20.50
2022-08-02T20:35:00.393Z,20.60
2022-08-02T20:37:59.343Z,20.60
2022-08-02T20:40:20.817Z,20.70
2022-08-02T20:42:49.747Z,20.80
2022-08-02T20:45:20.108Z,20.80
2022-08-02T20:47:52.517Z,20.70
2022-08-02T20:50:43.356Z,20.60
2022-08-02T20:53:23.775Z,20.60
2022-08-02T20:55:57.891Z,20.80
2022-08-02T20:58:28.036Z,20.90
2022-08-02T21:01:00.201Z,20.90
2022-08-02T21:03:38.833Z,21.00
2022-08-02T21:06:10.219Z,21.00
2022-08-02T21:08:46.228Z,21.20
2022-08-02T21:11:18.033Z,21.30
2022-08-02T21:14:06.549Z,21.20
2022-08-02T21:16:36.481Z,21.20
2022-08-02T21:19:09.765Z,21.10
2022-08-02T21:21:39.994Z,21.10
2022-08-02T21:24:12.342Z,21.10
2022-08-02T21:26:43.019Z,21.00
2022-08-02T21:29:17.619Z,20.90
2022-08-02T21:31:46.897Z,20.90
2022-08-02T21:34:22.586Z,20.90
2022-08-02T21:36:56.625Z,20.80
2022-08-02T21:39:28.050Z,20.80
2022-08-02T21:42:02.031Z,20.70
2022-08-02T21:44:37.585Z,20.70
2022-08-02T21:47:14.578Z,20.70
2022-08-02T21:50:13.239Z,20.70
2022-08-02T21:52:37.962Z,20.60
2022-08-02T21:55:14.979Z,20.70
2022-08-02T21:57:45.868Z,20.70
2022-08-02T22:00:28.213Z,20.70
2022-08-02T22:02:58.150Z,20.60
2022-08-02T22:05:28.644Z,20.60
2022-08-02T22:08:07.638Z,20.60
2022-08-02T22:10:55.358Z,20.60
2022-08-02T22:13:25.926Z,20.60
2022-08-02T22:16:08.114Z,20.60
2022-08-02T22:18:37.743Z,20.60
2022-08-02T22:21:13.992Z,20.50
2022-08-02T22:23:51.251Z,20.50
2022-08-02T22:26:24.307Z,20.40
2022-08-02T22:28:59.680Z,20.40
2022-08-02T22:31:40.823Z,20.50
2022-08-02T22:34:11.590Z,20.50
2022-08-02T22:36:56.155Z,20.50
2022-08-02T22:39:26.151Z,20.50
2022-08-02T22:42:05.900Z,20.50
2022-08-02T22:44:46.124Z,20.40
2022-08-02T22:47:15.297Z,20.30
2022-08-02T22:49:53.019Z,20.20
2022-08-02T22:52:24.057Z,20.10
2022-08-02T22:54:57.048Z,20.10
2022-08-02T22:57:30.898Z,20.00
2022-08-02T22:58:54.159Z,20.20
2022-08-02T23:00:04.501Z,20.00
2022-08-02T23:02:33.523Z,20.00
2022-08-02T23:05:02.467Z,20.10
2022-08-02T23:07:36.191Z,20.10
2022-08-02T23:10:11.211Z,20.10
2022-08-02T23:12:40.953Z,20.10
2022-08-02T23:15:13.622Z,20.00
2022-08-02T23:18:01.217Z,20.10
2022-08-02T23:20:30.796Z,20.00
2022-08-02T23:23:00.374Z,20.00
2022-08-02T23:25:29.046Z,20.00
2022-08-02T23:28:00.538Z,20.00
2022-08-02T23:30:32.181Z,19.90
2022-08-02T23:33:04.714Z,19.90
2022-08-02T23:35:35.683Z,20.00
2022-08-02T23:38:05.294Z,19.90
2022-08-02T23:40:40.285Z,19.90
2022-08-02T23:43:14.800Z,20.00
2022-08-02T23:45:46.927Z,20.00
2022-08-02T23:48:17.585Z,20.00
2022-08-02T23:50:49.846Z,19.90
2022-08-02T23:53:23.919Z,19.90
2022-08-02T23:55:58.256Z,19.90
2022-08-02T23:58:28.658Z,19.90
